createdAt,value
2022-10-21T00:01:45.244Z,45.45
2022-10-21T00:06:46.923Z,47.03
2022-10-21T00:11:48.287Z,52.80
2022-10-21T00:16:49.734Z,46.45
2022-10-21T00:21:51.079Z,50.83
2022-10-21T00:26:52.490Z,47.20
2022-10-21T00:31:54.424Z,49.92
2022-10-21T00:36:55.832Z,53.15
2022-10-21T00:41:57.216Z,49.55
2022-10-21T00:47:04.066Z,43.63
2022-10-21T00:52:09.163Z,57.17
2022-10-21T00:57:11.433Z,52.65
2022-10-21T01:02:12.806Z,47.13
2022-10-21T01:07:14.208Z,62.03
2022-10-21T01:12:35.305Z,53.60
2022-10-21T01:17:45.940Z,50.28
2022-10-21T01:22:56.250Z,48.58
2022-10-21T01:28:22.589Z,58.72
2022-10-21T01:33:40.534Z,54.55
2022-10-21T01:39:04.438Z,54.13
2022-10-21T01:44:29.954Z,50.88
2022-10-21T01:50:04.870Z,52.00
2022-10-21T01:55:13.408Z,51.72
2022-10-21T02:00:15.440Z,53.92
2022-10-21T02:05:25.444Z,45.47
2022-10-21T02:10:32.438Z,54.60
2022-10-21T02:15:34.888Z,49.15
2022-10-21T02:20:42.099Z,48.25
2022-10-21T02:30:49.764Z,49.83
2022-10-21T02:36:03.352Z,51.35
2022-10-21T02:41:09.599Z,60.35
2022-10-21T02:46:13.017Z,74.50
2022-10-21T02:51:15.231Z,80.85
2022-10-21T02:56:16.663Z,139.25
2022-10-21T03:01:18.424Z,138.32
2022-10-21T03:06:19.925Z,161.45
2022-10-21T03:11:21.395Z,140.30
2022-10-21T03:16:22.734Z,243.88
2022-10-21T03:21:24.159Z,151.07
2022-10-21T03:26:25.494Z,113.55
2022-10-21T03:31:26.915Z,92.30
2022-10-21T03:36:28.480Z,102.10
2022-10-21T03:41:29.867Z,93.05
2022-10-21T03:46:31.701Z,77.50
2022-10-21T03:51:33.159Z,80.07
2022-10-21T03:56:34.596Z,77.47
2022-10-21T04:01:36.351Z,79.63
2022-10-21T04:06:37.819Z,81.80
2022-10-21T04:11:39.191Z,74.30
2022-10-21T04:16:40.554Z,92.60
2022-10-21T04:21:41.912Z,79.95
2022-10-21T04:26:43.371Z,78.10
2022-10-21T04:31:44.886Z,75.55
2022-10-21T04:36:46.282Z,92.72
2022-10-21T04:41:49.849Z,102.13
2022-10-21T04:46:51.218Z,106.50
2022-10-21T04:51:52.577Z,131.45
2022-10-21T04:56:53.980Z,124.25
2022-10-21T05:01:55.473Z,126.10
2022-10-21T05:06:56.858Z,116.40
2022-10-21T05:11:58.257Z,170.23
2022-10-21T05:16:59.637Z,148.88
2022-10-21T05:22:00.982Z,119.32
2022-10-21T05:27:02.395Z,115.85
2022-10-21T05:32:03.988Z,123.78
2022-10-21T05:37:05.366Z,185.85
2022-10-21T05:42:06.784Z,116.55
2022-10-21T05:47:08.272Z,101.00
2022-10-21T05:52:09.728Z,186.50
2022-10-21T05:57:11.105Z,168.00
2022-10-21T06:02:12.517Z,126.85
2022-10-21T06:07:13.970Z,102.50
2022-10-21T06:12:15.384Z,115.07
2022-10-21T06:17:16.763Z,87.57
2022-10-21T06:22:18.274Z,104.57
2022-10-21T06:27:20.123Z,101.03
2022-10-21T06:32:21.459Z,100.47
2022-10-21T06:37:22.824Z,93.53
2022-10-21T06:42:24.204Z,77.80
2022-10-21T06:47:25.644Z,77.18
2022-10-21T06:52:27.056Z,60.03
2022-10-21T06:57:28.437Z,59.08
2022-10-21T07:02:29.883Z,47.17
2022-10-21T07:07:31.623Z,36.65
2022-10-21T07:12:33.028Z,30.08
2022-10-21T07:17:34.398Z,27.02
2022-10-21T07:22:35.772Z,23.48
2022-10-21T07:27:37.560Z,27.60
2022-10-21T07:32:39.152Z,27.77
2022-10-21T07:37:41.015Z,27.92
2022-10-21T07:42:42.671Z,27.38
2022-10-21T07:47:44.084Z,22.98
2022-10-21T07:52:51.934Z,25.48
2022-10-21T07:58:05.401Z,26.42
2022-10-21T08:03:06.734Z,32.88
2022-10-21T08:08:08.096Z,26.08
2022-10-21T08:13:09.476Z,29.20
2022-10-21T08:18:11.099Z,26.83
2022-10-21T08:23:14.687Z,22.92
2022-10-21T08:28:16.749Z,28.77
2022-10-21T08:33:18.944Z,31.10
2022-10-21T08:43:38.297Z,33.42
2022-10-21T08:48:46.721Z,35.78
2022-10-21T08:53:49.593Z,40.83
2022-10-21T08:58:51.593Z,35.78
2022-10-21T09:03:55.782Z,41.05
2022-10-21T09:09:05.870Z,42.67
2022-10-21T09:14:54.345Z,38.42
2022-10-21T09:20:33.246Z,34.10
2022-10-21T09:25:45.257Z,34.70
2022-10-21T09:30:47.463Z,38.85
2022-10-21T09:36:10.519Z,34.25
2022-10-21T09:46:28.503Z,31.77
2022-10-21T09:51:33.349Z,32.53
2022-10-21T09:56:38.551Z,36.65
2022-10-21T10:01:42.531Z,36.83
2022-10-21T10:06:44.537Z,34.38
2022-10-21T10:11:51.632Z,31.70
2022-10-21T10:22:15.671Z,32.17
2022-10-21T10:27:23.432Z,33.75
2022-10-21T10:32:31.649Z,29.48
2022-10-21T10:37:37.825Z,32.83
2022-10-21T10:42:44.841Z,27.37
2022-10-21T10:47:56.700Z,19.70
2022-10-21T10:53:27.332Z,20.10
2022-10-21T10:58:33.451Z,23.33
2022-10-21T11:03:41.403Z,22.33
2022-10-21T11:08:50.086Z,22.42
2022-10-21T11:13:53.225Z,16.48
2022-10-21T11:19:25.498Z,13.25
2022-10-21T11:24:37.289Z,11.95
2022-10-21T11:29:44.571Z,10.25
2022-10-21T11:35:21.217Z,11.65
2022-10-21T11:40:41.837Z,10.77
2022-10-21T11:46:04.030Z,10.70
2022-10-21T11:51:34.668Z,12.07
2022-10-21T11:56:46.594Z,13.00
2022-10-21T12:01:54.055Z,10.48
2022-10-21T12:07:13.098Z,7.68
2022-10-21T12:12:22.581Z,9.95
2022-10-21T12:17:25.205Z,10.85
2022-10-21T12:22:29.174Z,6.85
2022-10-21T12:27:39.443Z,6.90
2022-10-21T12:33:04.355Z,3.88
2022-10-21T12:38:19.147Z,3.85
2022-10-21T12:43:28.330Z,4.97
2022-10-21T12:48:38.257Z,4.88
2022-10-21T12:53:47.124Z,3.40
2022-10-21T12:59:01.601Z,3.95
2022-10-21T13:04:03.599Z,3.95
2022-10-21T13:10:05.891Z,4.10
2022-10-21T13:15:22.396Z,2.22
2022-10-21T13:20:23.784Z,2.63
2022-10-21T13:25:31.422Z,2.33
2022-10-21T13:30:37.904Z,3.28
2022-10-21T13:36:12.488Z,3.67
2022-10-21T13:41:27.364Z,2.72
2022-10-21T13:46:42.527Z,5.57
2022-10-21T13:51:46.731Z,4.00
2022-10-21T13:56:48.471Z,5.28
2022-10-21T14:01:56.159Z,1.42
2022-10-21T14:07:01.284Z,5.28
2022-10-21T14:12:06.140Z,4.20
2022-10-21T14:17:27.487Z,4.53
2022-10-21T14:22:31.393Z,1.98
2022-10-21T14:27:35.287Z,3.03
2022-10-21T14:32:38.387Z,2.55
2022-10-21T14:37:52.051Z,7.35
2022-10-21T14:42:56.595Z,5.18
2022-10-21T14:48:01.164Z,7.63
2022-10-21T14:53:02.925Z,8.93
2022-10-21T14:58:10.532Z,5.60
2022-10-21T15:03:12.421Z,6.13
2022-10-21T15:08:34.154Z,20.58
2022-10-21T15:13:35.698Z,3.70
2022-10-21T15:18:52.554Z,4.03
2022-10-21T15:23:57.507Z,2.78
2022-10-21T15:28:59.148Z,3.75
2022-10-21T15:34:00.517Z,4.78
2022-10-21T15:39:05.378Z,8.38
2022-10-21T15:44:17.753Z,6.13
2022-10-21T15:49:22.163Z,6.38
2022-10-21T15:54:23.568Z,3.05
2022-10-21T15:59:29.536Z,5.60
2022-10-21T16:04:30.952Z,4.30
2022-10-21T16:09:32.312Z,3.80
2022-10-21T16:14:33.705Z,3.78
2022-10-21T16:19:35.085Z,4.97
2022-10-21T16:24:36.436Z,5.05
2022-10-21T16:29:37.979Z,5.13
2022-10-21T16:34:39.859Z,4.13
2022-10-21T16:39:41.259Z,6.45
2022-10-21T16:44:44.738Z,6.18
2022-10-21T16:49:47.570Z,4.40
2022-10-21T16:54:50.223Z,9.82
2022-10-21T16:59:51.639Z,8.38
2022-10-21T17:04:53.006Z,6.07
2022-10-21T17:09:54.345Z,8.68
2022-10-21T17:14:55.721Z,7.53
2022-10-21T17:19:57.639Z,9.02
2022-10-21T17:24:59.088Z,7.75
2022-10-21T17:30:01.191Z,6.22
2022-10-21T17:35:02.600Z,6.00
2022-10-21T17:40:04.373Z,9.63
2022-10-21T17:45:06.508Z,8.68
2022-10-21T17:50:09.343Z,12.35
2022-10-21T17:55:10.856Z,13.65
2022-10-21T18:00:14.014Z,9.68
2022-10-21T18:05:15.568Z,7.72
2022-10-21T18:10:17.068Z,6.97
2022-10-21T18:15:19.309Z,5.03
2022-10-21T18:20:21.000Z,4.20
2022-10-21T18:25:22.362Z,6.80
2022-10-21T18:30:23.704Z,6.93
2022-10-21T18:35:25.687Z,6.07
2022-10-21T18:40:28.071Z,6.35
2022-10-21T18:45:29.470Z,6.60
2022-10-21T18:50:31.155Z,8.80
2022-10-21T18:55:32.500Z,7.57
2022-10-21T19:00:33.884Z,8.55
2022-10-21T19:05:35.281Z,9.23
2022-10-21T19:10:36.611Z,6.75
2022-10-21T19:15:38.016Z,6.97
2022-10-21T19:20:40.239Z,13.35
2022-10-21T19:25:41.620Z,5.35
2022-10-21T19:30:45.223Z,6.50
2022-10-21T19:35:46.621Z,7.03
2022-10-21T19:45:50.430Z,11.07
2022-10-21T19:50:53.484Z,11.88
2022-10-21T19:55:55.563Z,12.50
2022-10-21T20:01:10.595Z,13.85
2022-10-21T20:06:17.303Z,7.80
2022-10-21T20:11:20.800Z,7.97
2022-10-21T20:16:37.400Z,10.38
2022-10-21T20:21:38.810Z,10.53
2022-10-21T20:31:46.548Z,9.00
2022-10-21T20:36:48.378Z,11.57
2022-10-21T20:41:49.754Z,11.38
2022-10-21T20:46:51.147Z,12.52
2022-10-21T20:51:52.564Z,11.98
2022-10-21T20:56:53.934Z,13.07
2022-10-21T21:01:55.765Z,15.07
2022-10-21T21:06:57.209Z,7.55
2022-10-21T21:17:05.478Z,12.07
2022-10-21T21:22:09.222Z,17.00
2022-10-21T21:27:10.621Z,10.80
2022-10-21T21:32:12.065Z,12.20
2022-10-21T21:37:13.409Z,21.33
2022-10-21T21:42:15.052Z,11.07
2022-10-21T21:47:16.500Z,17.05
2022-10-21T21:52:17.858Z,12.55
2022-10-21T21:57:34.614Z,18.95
2022-10-21T22:02:36.086Z,19.20
2022-10-21T22:07:37.696Z,17.85
2022-10-21T22:12:39.351Z,15.93
2022-10-21T22:17:41.077Z,23.63
2022-10-21T22:22:42.911Z,20.25
2022-10-21T22:27:44.615Z,14.98
2022-10-21T22:32:46.134Z,17.67
2022-10-21T22:37:47.660Z,16.08
2022-10-21T22:42:49.202Z,19.55
2022-10-21T22:47:50.584Z,18.25
2022-10-21T22:52:51.924Z,18.92
2022-10-21T22:57:53.264Z,17.70
2022-10-21T23:02:54.714Z,18.45
2022-10-21T23:07:56.179Z,16.33
2022-10-21T23:13:06.668Z,17.38
2022-10-21T23:18:08.280Z,17.88
2022-10-21T23:23:10.068Z,16.05
2022-10-21T23:28:11.949Z,15.73
2022-10-21T23:33:15.597Z,15.55
2022-10-21T23:38:17.166Z,14.60
2022-10-21T23:43:18.629Z,17.02
2022-10-21T23:48:20.236Z,17.58
2022-10-21T23:53:22.091Z,12.38
2022-10-21T23:58:24.010Z,17.25
